Time;durP1;ratioP1;P1;durP2;ratioP2;P2;SDS_P1;SDS_P2;PMS_P1;PMS_P2;Temp;Humidity;BMP_temperature;BMP_pressure;BME280_temperature;BME280_humidity;BME280_pressure;Samples;Min_cycle;Max_cycle;Signal;HPM_P1;HPM_P2
2022/03/28 00:00:50;;;;;;;25.50;13.00;;;4.20;99.90;;;;;;4996729;28;20065;-78
2022/03/28 00:03:16;;;;;;;22.83;13.00;;;4.10;99.90;;;;;;4991996;28;20478;-79
2022/03/28 00:05:42;;;;;;;28.67;13.40;;;4.10;99.90;;;;;;5009973;28;20022;-78
2022/03/28 00:08:08;;;;;;;30.90;13.33;;;4.10;99.90;;;;;;4994059;28;20026;-78
2022/03/28 00:10:33;;;;;;;23.43;12.97;;;4.00;99.90;;;;;;5011660;28;20482;-78
2022/03/28 00:12:59;;;;;;;26.33;14.00;;;4.00;99.90;;;;;;5011987;28;20026;-78
2022/03/28 00:15:25;;;;;;;26.60;13.40;;;4.00;99.90;;;;;;5011181;28;20120;-78
2022/03/28 00:17:50;;;;;;;23.13;12.90;;;3.90;99.90;;;;;;5011218;28;20022;-78
2022/03/28 00:20:16;;;;;;;27.53;14.60;;;3.90;99.90;;;;;;5011583;28;20135;-78
2022/03/28 00:22:42;;;;;;;25.03;13.53;;;3.90;99.90;;;;;;5011475;28;20030;-79
2022/03/28 00:25:09;;;;;;;21.10;13.30;;;3.90;99.90;;;;;;5011120;28;20038;-78
2022/03/28 00:27:35;;;;;;;21.13;13.63;;;3.80;99.90;;;;;;5011240;28;20037;-78
2022/03/28 00:30:01;;;;;;;27.43;13.70;;;3.80;99.90;;;;;;5010555;28;20033;-79
2022/03/28 00:32:27;;;;;;;25.53;13.00;;;3.80;99.90;;;;;;4993708;28;20029;-79
2022/03/28 00:34:53;;;;;;;23.50;13.40;;;3.80;99.90;;;;;;4993523;28;20045;-78
2022/03/28 00:37:19;;;;;;;26.07;12.80;;;3.70;99.90;;;;;;5011162;28;20022;-78
2022/03/28 00:39:44;;;;;;;22.57;13.40;;;3.70;99.90;;;;;;5011046;28;20034;-79
2022/03/28 00:42:11;;;;;;;24.10;13.03;;;3.60;99.90;;;;;;5010944;28;20029;-79
2022/03/28 00:44:36;;;;;;;27.03;13.33;;;3.60;99.90;;;;;;5011043;28;20045;-79
2022/03/28 00:47:02;;;;;;;30.93;15.10;;;3.60;99.90;;;;;;5011198;28;20387;-79
2022/03/28 00:49:28;;;;;;;23.13;13.30;;;3.50;99.90;;;;;;5010617;28;20030;-79
2022/03/28 00:51:54;;;;;;;23.60;13.33;;;3.50;99.90;;;;;;4993276;28;20030;-79
2022/03/28 00:54:20;;;;;;;22.47;13.20;;;3.40;99.90;;;;;;5010816;28;20053;-79
2022/03/28 00:56:48;;;;;;;22.60;13.47;;;3.40;99.90;;;;;;4993342;28;20025;-79
2022/03/28 00:59:14;;;;;;;24.07;13.33;;;3.40;99.90;;;;;;5003917;28;20026;-79
2022/03/28 01:01:39;;;;;;;23.63;12.53;;;3.40;99.90;;;;;;4993077;28;20490;-79
2022/03/28 01:04:08;;;;;;;26.37;13.13;;;3.30;99.90;;;;;;5010893;28;20050;-79
2022/03/28 01:06:36;;;;;;;21.03;12.83;;;3.30;99.90;;;;;;5010509;28;20079;-79
2022/03/28 01:09:03;;;;;;;21.03;12.80;;;3.30;99.90;;;;;;5010587;28;20034;-79
2022/03/28 01:11:29;;;;;;;24.03;14.30;;;3.20;99.90;;;;;;5010679;28;20048;-79
2022/03/28 01:13:55;;;;;;;22.17;13.47;;;3.20;99.90;;;;;;4992908;28;20034;-79
2022/03/28 01:16:21;;;;;;;25.53;13.57;;;3.10;99.90;;;;;;5010526;28;20098;-79
2022/03/28 01:18:50;;;;;;;24.30;13.70;;;3.10;99.90;;;;;;5010641;28;20054;-79
2022/03/28 01:21:19;;;;;;;22.47;12.70;;;3.10;99.90;;;;;;4992918;28;20021;-77
2022/03/28 01:23:45;;;;;;;23.13;13.20;;;3.10;99.90;;;;;;5010463;28;20025;-77
2022/03/28 01:26:12;;;;;;;21.00;12.57;;;3.00;99.90;;;;;;5010243;28;20026;-78
2022/03/28 01:28:38;;;;;;;21.13;12.40;;;3.00;99.90;;;;;;5010313;28;20105;-78
2022/03/28 01:31:04;;;;;;;20.63;12.83;;;3.00;99.90;;;;;;4993000;28;20121;-78
2022/03/28 01:33:29;;;;;;;19.70;11.37;;;2.90;99.90;;;;;;5010768;28;20076;-78
2022/03/28 01:35:55;;;;;;;22.03;12.47;;;2.90;99.90;;;;;;5010369;28;20076;-78
2022/03/28 01:38:21;;;;;;;21.67;12.57;;;2.90;99.90;;;;;;5010286;28;20026;-78
2022/03/28 01:40:49;;;;;;;19.37;12.27;;;2.80;99.90;;;;;;5010179;28;20431;-78
2022/03/28 01:43:15;;;;;;;19.23;11.60;;;2.80;99.90;;;;;;5010440;28;20036;-78
2022/03/28 01:45:41;;;;;;;23.50;11.90;;;2.80;99.90;;;;;;5009930;28;20101;-78
2022/03/28 01:48:07;;;;;;;21.47;12.47;;;2.80;99.90;;;;;;5010357;28;20033;-78
2022/03/28 01:50:34;;;;;;;21.60;12.03;;;2.80;99.90;;;;;;5009889;28;20030;-78
2022/03/28 01:52:59;;;;;;;23.17;11.97;;;2.80;99.90;;;;;;4992604;28;20116;-78
2022/03/28 01:55:25;;;;;;;20.57;11.80;;;2.70;99.90;;;;;;5010421;28;20101;-78
2022/03/28 01:57:52;;;;;;;23.23;11.63;;;2.70;99.90;;;;;;5004530;28;20038;-79
2022/03/28 02:00:20;;;;;;;20.23;11.33;;;2.60;99.90;;;;;;5005804;28;20028;-79
2022/03/28 02:02:47;;;;;;;20.43;11.87;;;2.60;99.90;;;;;;4992407;28;20038;-78
2022/03/28 02:05:13;;;;;;;19.83;12.03;;;2.60;99.90;;;;;;4992689;28;20026;-78
2022/03/28 02:07:40;;;;;;;23.67;12.87;;;2.60;99.90;;;;;;5010259;28;20033;-79
2022/03/28 02:10:08;;;;;;;22.93;11.87;;;2.50;99.90;;;;;;5011365;28;20033;-78
2022/03/28 02:12:34;;;;;;;20.37;11.87;;;2.50;99.90;;;;;;5013646;28;20080;-78
2022/03/28 02:15:00;;;;;;;20.40;11.93;;;2.50;99.90;;;;;;5013711;28;20026;-78
2022/03/28 02:17:25;;;;;;;22.87;10.87;;;2.50;99.90;;;;;;5014039;28;20029;-79
2022/03/28 02:19:51;;;;;;;21.27;11.73;;;2.50;99.90;;;;;;5013769;28;20030;-79
2022/03/28 02:22:16;;;;;;;27.10;11.60;;;2.50;99.90;;;;;;4996036;28;20026;-79
2022/03/28 02:24:42;;;;;;;21.80;11.80;;;2.50;99.90;;;;;;5013475;28;20026;-79
2022/03/28 02:27:07;;;;;;;21.23;11.77;;;2.50;99.90;;;;;;5013673;28;20379;-79
2022/03/28 02:29:33;;;;;;;24.20;12.60;;;2.50;99.90;;;;;;5013864;28;20364;-79
2022/03/28 02:31:59;;;;;;;25.43;12.20;;;2.50;99.90;;;;;;4992768;28;20099;-79
2022/03/28 02:34:25;;;;;;;21.77;12.57;;;2.40;99.90;;;;;;5013790;28;20030;-79
2022/03/28 02:36:50;;;;;;;28.77;12.60;;;2.40;99.90;;;;;;5014995;28;20025;-79
2022/03/28 02:39:16;;;;;;;25.17;12.57;;;2.30;99.90;;;;;;5014956;28;20030;-79
2022/03/28 02:41:41;;;;;;;24.47;12.27;;;2.30;99.90;;;;;;5014937;28;20385;-79
2022/03/28 02:44:07;;;;;;;22.90;12.30;;;2.30;99.90;;;;;;4997008;28;20057;-79
2022/03/28 02:46:33;;;;;;;22.27;11.67;;;2.30;99.90;;;;;;5014371;28;20076;-79
2022/03/28 02:48:59;;;;;;;25.20;12.40;;;2.30;99.90;;;;;;4996248;28;20022;-79
2022/03/28 02:51:24;;;;;;;23.93;12.20;;;2.20;99.90;;;;;;5014453;28;20025;-78
2022/03/28 02:53:50;;;;;;;23.23;11.83;;;2.20;99.90;;;;;;5006880;28;20053;-79
2022/03/28 02:56:15;;;;;;;21.90;11.93;;;2.20;99.90;;;;;;4995300;28;20072;-78
2022/03/28 02:58:41;;;;;;;21.97;11.10;;;2.10;99.90;;;;;;5009629;28;20030;-79
2022/03/28 03:01:07;;;;;;;27.30;12.07;;;2.10;99.90;;;;;;4990025;28;20366;-78
2022/03/28 03:03:32;;;;;;;24.07;12.57;;;2.10;99.90;;;;;;5014393;28;20048;-78
2022/03/28 03:05:58;;;;;;;25.03;12.77;;;2.00;99.90;;;;;;5014558;28;20037;-78
2022/03/28 03:08:23;;;;;;;24.77;11.93;;;2.00;99.90;;;;;;4997019;28;20026;-78
2022/03/28 03:10:49;;;;;;;25.60;11.73;;;2.00;99.90;;;;;;5015071;28;20463;-78
2022/03/28 03:13:14;;;;;;;24.23;11.40;;;2.00;99.90;;;;;;5014828;28;20088;-79
2022/03/28 03:15:40;;;;;;;20.93;11.20;;;1.90;99.90;;;;;;4997145;28;20089;-79
2022/03/28 03:18:06;;;;;;;23.53;12.10;;;1.90;99.90;;;;;;5014927;28;20032;-79
2022/03/28 03:20:32;;;;;;;23.47;11.77;;;1.90;99.90;;;;;;5014575;28;20467;-79
2022/03/28 03:22:59;;;;;;;22.33;11.83;;;1.90;99.90;;;;;;4996343;28;20108;-79
2022/03/28 03:25:25;;;;;;;25.67;13.30;;;1.80;99.90;;;;;;5014288;28;20116;-78
2022/03/28 03:27:51;;;;;;;19.87;11.87;;;1.90;99.90;;;;;;4996692;28;20133;-79
2022/03/28 03:30:19;;;;;;;20.23;11.27;;;1.80;99.90;;;;;;5014331;28;20026;-79
2022/03/28 03:32:45;;;;;;;23.90;12.20;;;1.90;99.90;;;;;;4996756;28;20033;-79
2022/03/28 03:35:11;;;;;;;22.40;12.50;;;1.90;99.90;;;;;;5014193;28;20029;-79
2022/03/28 03:37:37;;;;;;;22.70;12.47;;;1.80;99.90;;;;;;4996848;28;20030;-79
2022/03/28 03:40:04;;;;;;;24.80;11.67;;;1.90;99.90;;;;;;5014254;28;20030;-79
2022/03/28 03:42:31;;;;;;;22.73;12.80;;;1.80;99.90;;;;;;5014015;28;20040;-79
2022/03/28 03:44:57;;;;;;;26.10;12.70;;;1.80;99.90;;;;;;5014364;28;20112;-78
2022/03/28 03:47:22;;;;;;;23.37;12.20;;;1.90;99.90;;;;;;5013922;28;20549;-79
2022/03/28 03:49:48;;;;;;;28.80;11.90;;;1.90;99.90;;;;;;5013885;28;20533;-79
2022/03/28 03:52:14;;;;;;;21.97;12.70;;;1.90;99.90;;;;;;5013941;28;20037;-79
2022/03/28 03:54:39;;;;;;;19.67;11.23;;;1.90;99.90;;;;;;5013980;28;20112;-79
2022/03/28 03:57:05;;;;;;;24.03;12.17;;;1.90;99.90;;;;;;4996583;28;20029;-79
2022/03/28 03:59:30;;;;;;;26.40;12.30;;;1.90;99.90;;;;;;5000726;28;20022;-79
2022/03/28 04:01:56;;;;;;;21.53;11.77;;;1.90;99.90;;;;;;5013619;28;20029;-79
2022/03/28 04:04:21;;;;;;;27.00;12.17;;;2.00;99.90;;;;;;5013672;28;20125;-79
2022/03/28 04:06:47;;;;;;;23.93;11.53;;;1.90;99.90;;;;;;5013910;28;20041;-79
2022/03/28 04:09:13;;;;;;;29.63;12.37;;;2.00;99.90;;;;;;5013535;28;20034;-79
2022/03/28 04:11:38;;;;;;;24.07;12.47;;;1.90;99.90;;;;;;5013035;28;20029;-79
2022/03/28 04:14:04;;;;;;;23.90;11.77;;;1.90;99.90;;;;;;5012864;28;20030;-78
2022/03/28 04:16:29;;;;;;;24.23;11.70;;;1.80;99.90;;;;;;5012930;28;20049;-80
2022/03/28 04:18:55;;;;;;;23.37;11.13;;;1.80;99.90;;;;;;5012202;28;20029;-78
2022/03/28 04:21:20;;;;;;;28.30;11.73;;;1.80;99.90;;;;;;5011525;28;20026;-78
2022/03/28 04:23:46;;;;;;;21.33;12.13;;;1.80;99.90;;;;;;5006369;28;20022;-78
2022/03/28 04:26:12;;;;;;;23.30;12.17;;;1.70;99.90;;;;;;5010221;28;20018;-78
2022/03/28 04:28:38;;;;;;;25.27;12.70;;;1.70;99.90;;;;;;5007456;28;20055;-78
2022/03/28 04:31:04;;;;;;;24.33;11.67;;;1.70;99.90;;;;;;5010407;28;20022;-78
2022/03/28 04:33:29;;;;;;;23.70;12.07;;;1.70;99.90;;;;;;5007892;28;20022;-78
2022/03/28 04:35:55;;;;;;;23.10;13.03;;;1.70;99.90;;;;;;5001785;28;20101;-78
2022/03/28 04:38:21;;;;;;;25.03;11.97;;;1.70;99.90;;;;;;5005724;28;20030;-78
2022/03/28 04:40:46;;;;;;;24.63;12.97;;;1.70;99.90;;;;;;5002476;28;20037;-78
2022/03/28 04:43:12;;;;;;;22.77;12.50;;;1.70;99.90;;;;;;5012732;28;20025;-78
2022/03/28 04:45:38;;;;;;;20.53;12.20;;;1.70;99.90;;;;;;5008553;28;20111;-78
2022/03/28 04:48:04;;;;;;;24.83;13.60;;;1.70;99.90;;;;;;5006082;28;20022;-78
2022/03/28 04:50:30;;;;;;;25.73;12.40;;;1.70;99.90;;;;;;4991514;28;20057;-78
2022/03/28 04:52:56;;;;;;;27.17;12.83;;;1.70;99.90;;;;;;5006714;28;20034;-78
2022/03/28 04:55:22;;;;;;;25.67;13.13;;;1.70;99.90;;;;;;5000369;28;20037;-78
2022/03/28 04:57:47;;;;;;;23.80;12.87;;;1.60;99.90;;;;;;5007298;28;20355;-79
2022/03/28 05:00:13;;;;;;;27.13;12.77;;;1.60;99.90;;;;;;4988190;28;20022;-79
2022/03/28 05:02:39;;;;;;;24.20;11.80;;;1.60;99.90;;;;;;5011861;28;20390;-79
2022/03/28 05:05:06;;;;;;;31.57;13.03;;;1.60;99.90;;;;;;5008809;28;20030;-79
2022/03/28 05:07:32;;;;;;;23.27;12.60;;;1.60;99.90;;;;;;5004468;28;20022;-79
2022/03/28 05:10:01;;;;;;;28.53;13.33;;;1.60;99.90;;;;;;5009029;28;20492;-79
2022/03/28 05:12:27;;;;;;;22.73;12.70;;;1.70;99.90;;;;;;5010141;28;20058;-78
2022/03/28 05:14:54;;;;;;;33.50;12.87;;;1.70;99.90;;;;;;5011182;28;20030;-78
2022/03/28 05:17:21;;;;;;;21.30;12.13;;;1.70;99.90;;;;;;4993653;28;20026;-80
2022/03/28 05:19:46;;;;;;;22.73;12.33;;;1.70;99.90;;;;;;5010539;28;20095;-80
2022/03/28 05:22:12;;;;;;;23.67;13.60;;;1.70;99.90;;;;;;4992825;28;20034;-80
2022/03/28 05:24:38;;;;;;;23.27;12.90;;;1.70;99.90;;;;;;5010281;28;20054;-80
2022/03/28 05:27:03;;;;;;;32.80;13.20;;;1.80;99.90;;;;;;5009844;28;20038;-80
2022/03/28 05:29:29;;;;;;;21.97;13.10;;;1.80;99.90;;;;;;5010027;28;20509;-82
2022/03/28 05:31:54;;;;;;;29.47;12.43;;;1.80;99.90;;;;;;4992240;28;20026;-82
2022/03/28 05:34:20;;;;;;;25.87;13.30;;;1.90;99.90;;;;;;5009657;28;20041;-82
2022/03/28 05:36:46;;;;;;;28.90;12.80;;;1.90;99.90;;;;;;5002531;28;20030;-82
2022/03/28 05:39:12;;;;;;;26.90;11.80;;;1.90;99.90;;;;;;4991363;28;20030;-82
2022/03/28 05:41:38;;;;;;;25.57;12.93;;;1.90;99.90;;;;;;4988883;28;20119;-81
2022/03/28 05:44:04;;;;;;;28.83;11.47;;;1.90;99.90;;;;;;4999204;28;20548;-82
2022/03/28 05:46:30;;;;;;;27.67;13.00;;;1.90;99.90;;;;;;4998221;28;20112;-82
2022/03/28 05:48:56;;;;;;;28.07;12.33;;;2.00;99.90;;;;;;4996876;28;20030;-82
2022/03/28 05:51:21;;;;;;;30.37;13.23;;;2.00;99.90;;;;;;5006025;28;20017;-79
2022/03/28 05:53:47;;;;;;;22.20;12.73;;;1.90;99.90;;;;;;5013157;28;20125;-79
2022/03/28 05:56:13;;;;;;;32.00;12.30;;;1.90;99.90;;;;;;5013136;28;20029;-79
2022/03/28 05:58:38;;;;;;;23.93;13.17;;;2.00;99.90;;;;;;4994243;28;20045;-79
2022/03/28 06:01:04;;;;;;;32.30;13.47;;;2.00;99.90;;;;;;5010782;28;20014;-79
2022/03/28 06:03:30;;;;;;;23.93;12.63;;;2.00;99.90;;;;;;5013002;28;20041;-79
2022/03/28 06:05:56;;;;;;;29.90;13.03;;;2.10;99.90;;;;;;4992571;28;20406;-80
2022/03/28 06:08:21;;;;;;;26.30;13.07;;;2.20;99.90;;;;;;5009612;28;20141;-79
2022/03/28 06:10:47;;;;;;;27.73;13.10;;;2.30;99.90;;;;;;5010671;28;20036;-79
2022/03/28 06:13:13;;;;;;;23.77;12.90;;;2.50;99.90;;;;;;5010498;28;20483;-79
2022/03/28 06:15:39;;;;;;;26.80;12.97;;;2.60;99.90;;;;;;4992600;28;20100;-79
2022/03/28 06:18:06;;;;;;;25.53;12.73;;;2.70;99.90;;;;;;5006376;28;20076;-79
2022/03/28 06:20:35;;;;;;;23.63;13.23;;;2.90;99.90;;;;;;5009049;28;20033;-80
2022/03/28 06:23:02;;;;;;;31.70;13.50;;;3.10;99.90;;;;;;5008881;28;20130;-80
2022/03/28 06:25:28;;;;;;;27.27;12.97;;;3.20;99.90;;;;;;5009481;28;20029;-80
2022/03/28 06:27:54;;;;;;;19.80;12.77;;;3.40;99.90;;;;;;5009872;28;20483;-80
2022/03/28 06:30:19;;;;;;;24.70;13.13;;;3.50;99.90;;;;;;5009585;28;20038;-78
2022/03/28 06:32:45;;;;;;;37.03;14.23;;;3.70;99.90;;;;;;4992742;28;20034;-80
2022/03/28 06:35:11;;;;;;;24.17;13.10;;;3.90;99.90;;;;;;4992633;28;20410;-80
2022/03/28 06:37:36;;;;;;;25.97;13.30;;;4.00;99.90;;;;;;4992623;28;20026;-80
2022/03/28 06:40:04;;;;;;;30.37;14.60;;;4.20;99.90;;;;;;5010785;28;20030;-76
2022/03/28 06:42:31;;;;;;;29.70;14.50;;;4.40;99.90;;;;;;5014257;28;20458;-76
2022/03/28 06:44:57;;;;;;;30.60;14.40;;;4.50;99.90;;;;;;5014699;28;20030;-78
2022/03/28 06:47:22;;;;;;;30.97;13.50;;;4.60;99.90;;;;;;5015154;28;20124;-77
2022/03/28 06:49:48;;;;;;;24.90;14.67;;;4.80;99.90;;;;;;5013803;28;20025;-76
2022/03/28 06:52:13;;;;;;;22.70;14.80;;;5.00;99.90;;;;;;5021260;28;20026;-76
2022/03/28 06:54:39;;;;;;;28.87;13.90;;;5.20;99.90;;;;;;5020865;28;20029;-76
2022/03/28 06:57:04;;;;;;;26.60;14.30;;;5.30;99.90;;;;;;5016703;28;20026;-76
2022/03/28 06:59:30;;;;;;;26.77;14.90;;;5.40;99.90;;;;;;5015118;28;20026;-76
2022/03/28 07:01:57;;;;;;;34.70;15.67;;;5.60;99.90;;;;;;5015271;28;20026;-76
2022/03/28 07:04:23;;;;;;;29.93;16.07;;;5.80;99.90;;;;;;5014614;28;20092;-76
2022/03/28 07:06:49;;;;;;;33.03;16.93;;;5.90;99.90;;;;;;5015052;28;20120;-76
2022/03/28 07:09:15;;;;;;;30.27;14.97;;;6.10;99.90;;;;;;4997399;28;20025;-76
2022/03/28 07:11:41;;;;;;;37.43;16.67;;;6.20;99.90;;;;;;4997072;28;20036;-76
2022/03/28 07:14:07;;;;;;;28.53;15.60;;;6.40;99.90;;;;;;5014743;28;20360;-76
2022/03/28 07:16:33;;;;;;;33.27;16.93;;;6.60;99.90;;;;;;5014792;28;20500;-76
2022/03/28 07:18:59;;;;;;;30.90;16.77;;;6.80;99.90;;;;;;5014625;28;20088;-76
2022/03/28 07:21:25;;;;;;;30.93;16.60;;;7.00;99.90;;;;;;5014892;28;20475;-76
2022/03/28 07:23:52;;;;;;;31.27;15.90;;;7.10;99.90;;;;;;4997113;28;20474;-75
2022/03/28 07:26:18;;;;;;;27.10;15.33;;;7.30;99.90;;;;;;4997265;28;20090;-75
2022/03/28 07:28:44;;;;;;;28.20;14.07;;;7.50;99.90;;;;;;4996964;28;20368;-75
2022/03/28 07:31:10;;;;;;;25.47;13.93;;;7.70;99.90;;;;;;4996609;28;20026;-75
2022/03/28 07:33:40;;;;;;;27.17;13.67;;;7.90;99.90;;;;;;4996843;28;20510;-75
2022/03/28 07:36:06;;;;;;;24.10;13.10;;;8.00;99.90;;;;;;5014445;28;20081;-76
2022/03/28 07:38:32;;;;;;;26.00;13.40;;;8.20;99.90;;;;;;5014194;28;20034;-77
2022/03/28 07:40:57;;;;;;;21.90;13.87;;;8.40;99.90;;;;;;4996473;28;20129;-76
2022/03/28 07:43:23;;;;;;;25.87;15.00;;;8.50;99.90;;;;;;4996444;28;20026;-77
2022/03/28 07:45:50;;;;;;;24.77;13.70;;;8.70;99.90;;;;;;4996689;28;20033;-76
2022/03/28 07:48:16;;;;;;;23.87;14.30;;;8.90;99.90;;;;;;4996517;28;20537;-76
2022/03/28 07:50:41;;;;;;;24.57;14.13;;;9.00;99.90;;;;;;4996230;28;20026;-76
2022/03/28 07:53:07;;;;;;;26.30;13.47;;;9.20;99.90;;;;;;4996438;28;20040;-76
2022/03/28 07:55:33;;;;;;;28.97;14.57;;;9.40;99.90;;;;;;5009822;28;20038;-79
2022/03/28 07:58:02;;;;;;;25.13;13.50;;;9.60;99.90;;;;;;4987736;28;20034;-79
2022/03/28 08:00:29;;;;;;;21.30;13.87;;;9.70;99.90;;;;;;4997722;28;20033;-79
2022/03/28 08:02:55;;;;;;;23.63;12.97;;;9.90;99.90;;;;;;5006404;28;20042;-78
2022/03/28 08:05:21;;;;;;;20.20;12.80;;;10.00;99.90;;;;;;5009852;28;20029;-75
2022/03/28 08:07:51;;;;;;;24.50;13.33;;;10.10;99.90;;;;;;5012877;28;20386;-75
2022/03/28 08:10:18;;;;;;;23.23;13.07;;;10.30;99.90;;;;;;4995352;28;20057;-76
2022/03/28 08:12:44;;;;;;;23.87;13.47;;;10.50;99.90;;;;;;5012089;28;20109;-76
2022/03/28 08:15:12;;;;;;;21.43;13.37;;;10.60;99.90;;;;;;5010453;28;20132;-79
2022/03/28 08:17:39;;;;;;;30.67;13.43;;;10.70;99.90;;;;;;5008468;28;20029;-79
2022/03/28 08:20:09;;;;;;;24.67;13.97;;;10.90;99.90;;;;;;5008221;28;20105;-79
2022/03/28 08:22:38;;;;;;;24.27;14.43;;;11.20;99.90;;;;;;5004317;28;20553;-79
2022/03/28 08:25:04;;;;;;;24.53;13.47;;;11.40;99.90;;;;;;5007371;28;20025;-79
2022/03/28 08:27:30;;;;;;;21.50;13.23;;;11.60;99.90;;;;;;5007870;28;20137;-79
2022/03/28 08:29:56;;;;;;;24.10;13.97;;;11.70;99.90;;;;;;5007947;28;20548;-79
2022/03/28 08:32:21;;;;;;;19.87;12.73;;;11.80;99.90;;;;;;5009883;28;20489;-79
2022/03/28 08:34:48;;;;;;;22.83;13.48;;;12.00;99.90;;;;;;5007065;28;20473;-79
2022/03/28 08:37:16;;;;;;;26.58;12.73;;;12.10;99.90;;;;;;5008115;28;20058;-79
2022/03/28 08:39:54;;;;;;;22.85;13.65;;;12.20;99.90;;;;;;5008175;28;20420;-76
2022/03/28 08:42:24;;;;;;;23.98;13.77;;;12.40;99.90;;;;;;5009277;28;20072;-79
2022/03/28 08:44:50;;;;;;;17.85;13.02;;;12.50;99.90;;;;;;4996512;28;20042;-79
2022/03/28 08:47:21;;;;;;;29.30;13.77;;;12.60;99.90;;;;;;5004946;28;20030;-79
2022/03/28 08:49:48;;;;;;;21.08;12.65;;;12.60;99.90;;;;;;5014683;28;20132;-80
2022/03/28 08:52:16;;;;;;;20.10;12.73;;;12.80;99.90;;;;;;5023368;28;20041;-79
2022/03/28 08:54:42;;;;;;;20.30;13.30;;;13.00;99.90;;;;;;5002403;28;20033;-79
2022/03/28 08:57:07;;;;;;;19.33;13.60;;;13.20;99.90;;;;;;4996696;28;20125;-79
2022/03/28 08:59:33;;;;;;;27.52;14.30;;;13.40;99.90;;;;;;5000653;28;20121;-79
2022/03/28 09:01:59;;;;;;;25.75;14.63;;;13.70;99.90;;;;;;5007405;28;20061;-76
2022/03/28 09:04:24;;;;;;;23.33;13.90;;;13.80;99.90;;;;;;4995485;28;20046;-78
2022/03/28 09:06:50;;;;;;;23.92;13.30;;;14.00;99.90;;;;;;5016138;28;20089;-79
2022/03/28 09:09:32;;;;;;;23.45;13.40;;;14.40;99.10;;;;;;5006055;28;20059;-79
2022/03/28 09:12:05;;;;;;;21.50;13.10;;;14.50;99.10;;;;;;4987991;28;20024;-79
2022/03/28 09:14:36;;;;;;;21.00;13.18;;;14.80;96.50;;;;;;4999278;28;20104;-79
2022/03/28 09:17:05;;;;;;;24.05;13.95;;;15.00;96.60;;;;;;4999716;28;20026;-79
2022/03/28 09:19:55;;;;;;;22.40;13.55;;;15.30;95.80;;;;;;4995544;28;20080;-79
2022/03/28 09:22:25;;;;;;;21.30;13.82;;;15.60;94.50;;;;;;5001718;28;20030;-79
2022/03/28 09:24:53;;;;;;;21.25;13.52;;;15.80;92.60;;;;;;5004925;28;20030;-79
2022/03/28 09:27:24;;;;;;;24.58;13.20;;;15.80;92.00;;;;;;5005643;28;20025;-79
2022/03/28 09:30:05;;;;;;;24.80;13.38;;;15.90;92.30;;;;;;5005149;28;20034;-79
2022/03/28 09:32:47;;;;;;;19.45;12.75;;;16.30;91.00;;;;;;5005816;28;20034;-79
2022/03/28 09:35:21;;;;;;;17.98;12.73;;;16.70;88.50;;;;;;4988652;28;20128;-79
2022/03/28 09:38:08;;;;;;;20.90;13.10;;;17.00;89.60;;;;;;5007153;28;20034;-79
2022/03/28 09:40:46;;;;;;;21.88;13.98;;;17.10;85.80;;;;;;4989555;28;20421;-80
2022/03/28 09:43:20;;;;;;;20.30;13.57;;;17.30;81.90;;;;;;5006980;28;20022;-80
2022/03/28 09:45:57;;;;;;;21.75;14.00;;;17.30;82.20;;;;;;5007103;28;20042;-80
2022/03/28 09:48:25;;;;;;;23.45;14.20;;;17.30;82.00;;;;;;5000634;28;20120;-80
2022/03/28 09:51:03;;;;;;;22.67;14.30;;;17.20;81.60;;;;;;5006899;28;20041;-80
2022/03/28 09:53:31;;;;;;;22.30;14.38;;;17.60;82.10;;;;;;4991486;28;20026;-79
2022/03/28 09:56:01;;;;;;;23.38;13.93;;;17.70;79.00;;;;;;5019021;28;20029;-79
2022/03/28 09:58:36;;;;;;;23.65;13.10;;;18.20;79.30;;;;;;5008495;28;20014;-79
2022/03/28 10:01:06;;;;;;;23.75;13.68;;;18.50;75.70;;;;;;5006700;28;20034;-79
2022/03/28 10:03:34;;;;;;;21.83;13.65;;;18.40;75.30;;;;;;5027000;28;20049;-70
2022/03/28 10:06:01;;;;;;;46.25;15.30;;;18.20;75.60;;;;;;5013748;28;20406;-71
2022/03/28 10:08:30;;;;;;;24.20;14.23;;;18.30;76.90;;;;;;5007656;28;20120;-72
2022/03/28 10:10:58;;;;;;;22.05;13.95;;;18.50;75.10;;;;;;5013337;28;20057;-77
2022/03/28 10:13:24;;;;;;;18.10;13.25;;;18.40;74.90;;;;;;5010551;28;20026;-77
2022/03/28 10:15:50;;;;;;;23.88;15.38;;;18.70;74.80;;;;;;5010601;28;20030;-78
2022/03/28 10:18:16;;;;;;;22.88;13.52;;;19.70;69.60;;;;;;5011221;28;20037;-78
2022/03/28 10:20:44;;;;;;;20.92;13.85;;;19.20;70.60;;;;;;5011231;28;20026;-78
2022/03/28 10:23:14;;;;;;;24.98;14.90;;;19.30;71.10;;;;;;5012306;28;20066;-78
2022/03/28 10:25:41;;;;;;;20.85;13.55;;;19.30;71.80;;;;;;5012400;28;20033;-75
2022/03/28 10:28:08;;;;;;;26.00;14.50;;;19.80;68.00;;;;;;5012177;28;20057;-75
2022/03/28 10:30:34;;;;;;;19.98;14.15;;;19.80;69.30;;;;;;5009157;28;20040;-77
2022/03/28 10:33:08;;;;;;;21.35;14.15;;;19.60;67.20;;;;;;5010084;28;20402;-77
2022/03/28 10:35:35;;;;;;;23.70;14.93;;;20.10;67.00;;;;;;5010170;28;20032;-77
2022/03/28 10:38:17;;;;;;;21.15;14.15;;;20.80;64.80;;;;;;5010079;28;20769;-77
2022/03/28 10:41:05;;;;;;;23.33;13.90;;;21.20;63.30;;;;;;5009951;28;20034;-76
2022/03/28 10:43:34;;;;;;;21.48;13.63;;;20.80;63.30;;;;;;5010336;28;20034;-77
2022/03/28 10:46:06;;;;;;;23.13;13.85;;;20.50;64.00;;;;;;5011928;28;20120;-77
2022/03/28 10:48:41;;;;;;;21.48;14.38;;;20.40;62.40;;;;;;5013571;28;20339;-76
2022/03/28 10:51:21;;;;;;;22.27;14.18;;;20.60;61.40;;;;;;5015329;28;20038;-74
2022/03/28 10:53:56;;;;;;;22.52;14.75;;;20.60;63.00;;;;;;5015362;28;20505;-75
2022/03/28 10:56:25;;;;;;;;;;;20.60;63.00;;;;;;5015911;28;20478;-77
2022/03/28 10:58:56;;;;;;;22.75;14.48;;;20.50;62.20;;;;;;5015217;28;19948;-76
2022/03/28 11:01:31;;;;;;;21.25;15.10;;;20.50;63.90;;;;;;5014020;28;20050;-76
2022/03/28 11:04:23;;;;;;;22.38;15.25;;;20.60;61.90;;;;;;5014938;28;20038;-76
2022/03/28 11:06:52;;;;;;;20.58;14.55;;;20.70;60.40;;;;;;5009931;28;20453;-77
2022/03/28 11:09:43;;;;;;;26.10;14.45;;;21.00;63.00;;;;;;5013551;28;20478;-77
2022/03/28 11:12:14;;;;;;;25.35;14.15;;;21.40;62.00;;;;;;5015266;28;20379;-75
2022/03/28 11:14:52;;;;;;;20.13;13.77;;;21.30;61.90;;;;;;5014546;28;20499;-75
2022/03/28 11:17:24;;;;;;;20.42;13.27;;;22.00;57.80;;;;;;5021554;28;20052;-75
2022/03/28 11:20:09;;;;;;;20.48;13.35;;;22.40;54.70;;;;;;5017205;28;20032;-76
2022/03/28 11:22:51;;;;;;;22.40;13.50;;;22.30;53.80;;;;;;5025445;28;20120;-76
2022/03/28 11:25:51;;;;;;;23.85;13.35;;;22.20;55.00;;;;;;5015092;28;20044;-76
2022/03/28 11:28:24;;;;;;;20.30;14.52;;;22.40;52.70;;;;;;4975644;28;20030;-77
2022/03/28 11:30:50;;;;;;;20.67;14.63;;;22.10;54.10;;;;;;4995013;28;20026;-77
2022/03/28 11:33:19;;;;;;;19.05;13.68;;;21.90;55.20;;;;;;5019728;28;20453;-77
2022/03/28 11:35:58;;;;;;;22.92;13.70;;;21.90;53.70;;;;;;4993811;28;20080;-77
2022/03/28 11:38:29;;;;;;;22.40;14.18;;;21.70;53.60;;;;;;5004800;28;20486;-76
2022/03/28 11:40:56;;;;;;;23.85;13.02;;;21.80;52.40;;;;;;4989420;28;20022;-76
2022/03/28 11:43:37;;;;;;;17.85;12.45;;;22.80;48.40;;;;;;5012872;28;20033;-76
2022/03/28 11:46:19;;;;;;;17.88;11.82;;;23.30;46.80;;;;;;5014549;28;20053;-76
2022/03/28 11:48:54;;;;;;;20.38;12.55;;;23.50;46.30;;;;;;5014084;28;20909;-77
2022/03/28 11:51:21;;;;;;;18.17;12.45;;;22.90;46.10;;;;;;4995760;28;20409;-76
2022/03/28 11:53:46;;;;;;;17.52;12.60;;;23.20;46.40;;;;;;5013663;28;20033;-77
2022/03/28 11:58:14;;;;;;;17.60;12.43;;;23.30;46.00;;;;;;5013035;28;20378;-76
2022/03/28 11:59:20;;;;;;;18.88;12.60;;;22.70;46.80;;;;;;5009951;28;20094;-76
2022/03/28 12:01:54;;;;;;;18.05;12.00;;;22.40;46.50;;;;;;5008460;28;20049;-76
2022/03/28 12:04:19;;;;;;;22.48;13.02;;;22.20;46.10;;;;;;5012947;28;20070;-76
2022/03/28 12:06:45;;;;;;;22.95;12.10;;;22.50;48.10;;;;;;4995276;28;20426;-76
2022/03/28 12:09:15;;;;;;;19.70;12.15;;;22.50;47.90;;;;;;5022702;28;20399;-76
2022/03/28 12:11:48;;;;;;;15.88;11.27;;;22.40;46.00;;;;;;5003353;28;20031;-80
2022/03/28 12:14:14;;;;;;;19.52;11.82;;;22.70;44.30;;;;;;4981543;28;20076;-79
2022/03/28 12:16:46;;;;;;;18.20;12.60;;;22.90;45.20;;;;;;4983633;28;20038;-80
2022/03/28 12:19:29;;;;;;;17.67;12.57;;;22.60;45.60;;;;;;4989375;28;20026;-80
2022/03/28 12:21:57;;;;;;;15.35;11.60;;;22.70;45.30;;;;;;4987567;28;20022;-80
2022/03/28 12:24:24;;;;;;;17.08;11.88;;;23.40;43.70;;;;;;4987966;28;20364;-80
2022/03/28 12:26:53;;;;;;;17.80;11.88;;;22.80;43.10;;;;;;4997950;28;20026;-80
2022/03/28 12:29:19;;;;;;;19.77;12.25;;;22.40;45.20;;;;;;5008088;28;20056;-80
2022/03/28 12:31:49;;;;;;;16.90;12.55;;;22.70;44.70;;;;;;5009211;28;20026;-77
2022/03/28 12:34:17;;;;;;;17.98;11.82;;;22.80;44.60;;;;;;5009784;28;22048;-77
2022/03/28 12:36:43;;;;;;;18.50;12.27;;;23.60;45.00;;;;;;5005984;28;20044;-78